Time;durP1;ratioP1;P1;durP2;ratioP2;P2;SDS_P1;SDS_P2;PMS_P1;PMS_P2;Temp;Humidity;BMP_temperature;BMP_pressure;BME280_temperature;BME280_humidity;BME280_pressure;Samples;Min_cycle;Max_cycle;Signal;HPM_P1;HPM_P2
2023/10/07 00:00:40;;;;;;;8.30;2.70;;;;;;;15.34;74.45;100481.48;110722;1211;140471;-69
2023/10/07 00:03:06;;;;;;;6.90;2.50;;;;;;;15.33;74.66;100478.69;110761;1215;112984;-66
2023/10/07 00:05:38;;;;;;;6.90;2.30;;;;;;;15.33;74.56;100483.77;110760;1213;139795;-66
2023/10/07 00:08:04;;;;;;;9.90;2.80;;;;;;;15.32;74.69;100479.13;110775;1214;108032;-66
2023/10/07 00:10:36;;;;;;;6.00;2.50;;;;;;;15.30;74.65;100475.47;110800;1213;98976;-67
2023/10/07 00:13:04;;;;;;;8.60;2.70;;;;;;;15.27;74.69;100473.31;110822;1209;138933;-67
2023/10/07 00:15:29;;;;;;;5.30;2.50;;;;;;;15.26;74.50;100487.75;110794;1209;113110;-67
2023/10/07 00:18:14;;;;;;;4.90;2.10;;;;;;;15.26;74.53;100465.80;110681;1215;140726;-66
2023/10/07 00:20:51;;;;;;;5.00;2.50;;;;;;;15.25;74.50;100463.71;110844;1209;107352;-67
2023/10/07 00:23:23;;;;;;;6.90;2.50;;;;;;;15.23;74.64;100459.71;110660;1215;139298;-70
2023/10/07 00:25:50;;;;;;;8.40;3.30;;;;;;;15.20;74.56;100464.73;110826;1213;99017;-68
2023/10/07 00:28:28;;;;;;;6.40;2.60;;;;;;;15.19;74.63;100455.61;110749;1214;99262;-68
2023/10/07 00:30:55;;;;;;;5.90;2.40;;;;;;;15.18;74.74;100458.07;110635;1210;139540;-68
2023/10/07 00:33:22;;;;;;;4.70;2.30;;;;;;;15.17;74.66;100456.87;110768;1212;99118;-67
2023/10/07 00:35:53;;;;;;;10.80;2.70;;;;;;;15.18;74.68;100459.15;110654;1214;139546;-67
2023/10/07 00:38:23;;;;;;;5.40;2.50;;;;;;;15.19;74.92;100455.48;110787;1214;99032;-68
2023/10/07 00:40:53;;;;;;;5.10;2.60;;;;;;;15.18;74.84;100454.11;110863;1209;112066;-67
2023/10/07 00:43:27;;;;;;;9.30;3.00;;;;;;;15.17;74.91;100441.21;110609;1215;140102;-68
2023/10/07 00:46:11;;;;;;;7.80;2.60;;;;;;;15.14;74.96;100436.69;110764;1215;108409;-67
2023/10/07 00:48:45;;;;;;;3.80;2.30;;;;;;;15.14;75.10;100431.65;110687;1210;139406;-67
2023/10/07 00:51:11;;;;;;;7.20;2.40;;;;;;;15.16;75.12;100431.02;110881;1209;99445;-67
2023/10/07 00:53:45;;;;;;;8.90;2.60;;;;;;;15.13;75.18;100429.38;110665;1210;139807;-67
2023/10/07 00:56:13;;;;;;;5.90;2.90;;;;;;;15.13;75.45;100428.34;110885;1209;99174;-66
2023/10/07 00:58:41;;;;;;;5.70;2.70;;;;;;;15.17;75.25;100417.43;110760;1210;106960;-67
2023/10/07 01:01:09;;;;;;;5.40;2.40;;;;;;;15.18;75.24;100426.20;110689;1215;142277;-68
2023/10/07 01:03:47;;;;;;;5.60;2.80;;;;;;;15.17;75.29;100422.86;110743;1209;99460;-67
2023/10/07 01:06:25;;;;;;;5.90;2.40;;;;;;;15.17;75.46;100417.95;110661;1214;140267;-67
2023/10/07 01:08:58;;;;;;;8.10;2.50;;;;;;;15.17;75.48;100410.42;110741;1209;100108;-67
2023/10/07 01:11:24;;;;;;;8.00;2.80;;;;;;;15.17;75.62;100407.16;110675;1212;140578;-67
2023/10/07 01:13:56;;;;;;;6.80;2.20;;;;;;;15.17;75.65;100398.41;110819;1209;98998;-67
2023/10/07 01:16:28;;;;;;;6.20;2.60;;;;;;;15.16;75.75;100399.48;110728;1213;99099;-67
2023/10/07 01:19:13;;;;;;;15.10;2.60;;;;;;;15.17;75.65;100399.48;110634;1215;140771;-67
2023/10/07 01:21:57;;;;;;;4.80;2.60;;;;;;;15.18;75.84;100392.39;110817;1213;101124;-68
2023/10/07 01:27:18;;;;;;;7.60;2.60;;;;;;;15.22;75.81;100379.66;110743;1210;99022;-67
2023/10/07 01:29:48;;;;;;;11.00;2.80;;;;;;;15.24;75.92;100381.55;110743;1209;138790;-67
2023/10/07 01:32:15;;;;;;;9.40;3.20;;;;;;;15.26;75.74;100370.06;110798;1213;113051;-67
2023/10/07 01:34:48;;;;;;;6.90;2.30;;;;;;;15.28;75.78;100371.21;110810;1210;100147;-67
2023/10/07 01:37:15;;;;;;;7.60;2.80;;;;;;;15.29;75.81;100371.46;110676;1209;139484;-67
2023/10/07 01:39:42;;;;;;;6.60;2.30;;;;;;;15.30;75.81;100375.54;110771;1215;99023;-69
2023/10/07 01:42:13;;;;;;;4.90;2.50;;;;;;;15.31;75.96;100374.80;110618;1213;139600;-68
2023/10/07 01:44:39;;;;;;;5.80;3.00;;;;;;;15.32;76.00;100376.52;110847;1215;112286;-69
2023/10/07 01:47:16;;;;;;;6.60;2.80;;;;;;;15.32;75.99;100372.91;110614;1214;141056;-67
2023/10/07 01:49:43;;;;;;;9.00;2.90;;;;;;;15.33;75.94;100367.40;110715;1209;107980;-67
2023/10/07 01:52:09;;;;;;;7.40;3.10;;;;;;;15.37;75.91;100360.52;110775;1215;99026;-67
2023/10/07 01:54:35;;;;;;;5.80;2.70;;;;;;;15.38;75.93;100366.90;110727;1210;139739;-68
2023/10/07 01:57:04;;;;;;;7.90;2.70;;;;;;;15.39;75.89;100359.48;110845;1209;99021;-68
2023/10/07 01:59:30;;;;;;;11.60;3.20;;;;;;;15.37;75.85;100363.19;110629;1213;138987;-68
2023/10/07 02:02:03;;;;;;;6.80;2.60;;;;;;;15.35;75.85;100362.58;110823;1209;99535;-67
2023/10/07 02:04:29;;;;;;;7.60;2.70;;;;;;;15.33;75.97;100360.41;110811;1210;99526;-68
2023/10/07 02:06:56;;;;;;;6.90;3.30;;;;;;;15.32;75.98;100363.00;110694;1209;138822;-68
2023/10/07 02:09:36;;;;;;;9.30;3.50;;;;;;;15.32;76.08;100365.13;110783;1214;99025;-67
2023/10/07 02:12:09;;;;;;;9.60;3.00;;;;;;;15.34;76.04;100376.02;110652;1209;138821;-67
2023/10/07 02:14:36;;;;;;;8.80;2.60;;;;;;;15.33;76.02;100374.81;110712;1225;99016;-68
2023/10/07 02:17:01;;;;;;;8.70;3.00;;;;;;;15.32;76.01;100369.64;110665;1214;139329;-67
2023/10/07 02:19:29;;;;;;;7.10;3.20;;;;;;;15.32;76.11;100370.18;110894;1209;97820;-68
2023/10/07 02:22:07;;;;;;;7.20;2.70;;;;;;;15.34;76.23;100370.08;110805;1215;107976;-67
2023/10/07 02:24:34;;;;;;;8.60;3.10;;;;;;;15.34;76.14;100366.09;110652;1215;140516;-68
2023/10/07 02:27:19;;;;;;;6.90;2.70;;;;;;;15.35;76.30;100358.30;110855;1209;99038;-67
2023/10/07 02:29:57;;;;;;;5.80;3.00;;;;;;;15.34;76.27;100352.77;110727;1214;139663;-67
2023/10/07 02:32:22;;;;;;;4.70;2.30;;;;;;;15.36;76.37;100355.31;110838;1215;100178;-68
2023/10/07 02:34:51;;;;;;;6.50;3.40;;;;;;;15.37;76.37;100355.98;110858;1215;99229;-67
2023/10/07 02:37:29;;;;;;;10.00;2.50;;;;;;;15.37;76.53;100361.00;110768;1214;139978;-68
2023/10/07 02:39:56;;;;;;;10.60;3.20;;;;;;;15.39;76.52;100360.14;110771;1213;99486;-68
2023/10/07 02:42:28;;;;;;;6.60;2.80;;;;;;;15.40;76.60;100351.48;110761;1209;139270;-67
2023/10/07 02:45:19;;;;;;;7.50;2.70;;;;;;;15.39;76.81;100358.55;110781;1215;100065;-68
2023/10/07 02:47:50;;;;;;;9.30;2.90;;;;;;;15.38;76.72;100353.78;110692;1215;139410;-67
2023/10/07 02:50:16;;;;;;;6.20;3.00;;;;;;;15.34;76.94;100349.71;110695;1209;100301;-68
2023/10/07 02:52:45;;;;;;;7.60;2.90;;;;;;;15.29;77.07;100357.08;110862;1209;99088;-68
2023/10/07 02:57:43;;;;;;;7.10;2.90;;;;;;;15.19;77.66;100360.64;110801;1215;99626;-65
2023/10/07 03:00:29;;;;;;;8.10;3.20;;;;;;;15.09;77.89;100360.23;110663;1213;138821;-66
2023/10/07 03:03:10;;;;;;;13.10;4.10;;;;;;;14.94;78.32;100351.31;110777;1212;99003;-67
2023/10/07 03:05:43;;;;;;;4.80;2.90;;;;;;;14.78;79.10;100356.73;110719;1209;141036;-66
2023/10/07 03:08:17;;;;;;;6.40;3.00;;;;;;;14.63;79.21;100360.04;110822;1215;112749;-66
2023/10/07 03:10:44;;;;;;;10.10;3.90;;;;;;;14.53;79.72;100362.60;110858;1209;99839;-66
2023/10/07 03:13:10;;;;;;;10.60;3.20;;;;;;;14.45;80.03;100359.03;110626;1209;139610;-66
2023/10/07 03:18:03;;;;;;;9.90;3.30;;;;;;;14.17;80.78;100351.25;110773;1209;139429;-67
2023/10/07 03:20:31;;;;;;;9.50;3.70;;;;;;;14.00;81.13;100341.54;110856;1213;100147;-67
2023/10/07 03:23:11;;;;;;;8.00;3.70;;;;;;;13.82;82.17;100338.72;110771;1215;107991;-67
2023/10/07 03:28:17;;;;;;;12.70;3.60;;;;;;;13.51;84.36;100338.60;110817;1214;99023;-67
2023/10/07 03:30:51;;;;;;;9.10;3.30;;;;;;;13.46;85.10;100330.83;110664;1215;139434;-66
2023/10/07 03:33:25;;;;;;;10.40;3.20;;;;;;;13.45;86.04;100331.46;110872;1209;98875;-66
2023/10/07 03:38:25;;;;;;;;;;;;;;;13.47;87.71;100337.98;110817;1211;99190;-66
2023/10/07 03:40:56;;;;;;;9.70;3.80;;;;;;;13.48;88.27;100340.07;110873;1212;99842;-66
2023/10/07 03:43:26;;;;;;;9.40;3.70;;;;;;;13.49;88.89;100345.37;110869;1209;138717;-68
2023/10/07 03:45:55;;;;;;;5.60;3.00;;;;;;;13.50;89.02;100337.77;110984;1212;99031;-68
2023/10/07 03:48:24;;;;;;;11.50;3.40;;;;;;;13.48;89.62;100337.91;110659;1214;138787;-68
2023/10/07 03:50:59;;;;;;;12.60;4.30;;;;;;;13.47;89.52;100338.17;110711;1209;99035;-66
2023/10/07 03:53:29;;;;;;;8.20;3.80;;;;;;;13.48;90.42;100336.31;110734;1226;139767;-67
2023/10/07 03:55:55;;;;;;;8.20;3.40;;;;;;;13.48;91.05;100334.29;110728;1214;112636;-68
2023/10/07 03:58:20;;;;;;;9.10;3.40;;;;;;;13.47;91.35;100333.65;110824;1214;99205;-67
2023/10/07 04:00:46;;;;;;;8.90;3.80;;;;;;;13.46;91.90;100338.90;110774;1209;139112;-65
2023/10/07 04:03:11;;;;;;;8.80;3.40;;;;;;;13.45;92.24;100335.77;110836;1215;99036;-65
2023/10/07 04:05:41;;;;;;;8.90;4.70;;;;;;;13.43;92.26;100334.98;110773;1214;139371;-65
2023/10/07 04:08:07;;;;;;;9.20;3.80;;;;;;;13.41;92.57;100332.77;110725;1212;106869;-65
2023/10/07 04:10:36;;;;;;;12.80;3.60;;;;;;;13.41;93.07;100328.84;110819;1214;99737;-66
2023/10/07 04:13:07;;;;;;;8.50;3.50;;;;;;;13.41;93.45;100333.32;110655;1209;139093;-66
2023/10/07 04:15:44;;;;;;;7.60;3.80;;;;;;;13.43;94.31;100326.90;110844;1214;112935;-66
2023/10/07 04:18:10;;;;;;;15.10;4.30;;;;;;;13.42;94.35;100325.34;110623;1214;140222;-67
2023/10/07 04:20:57;;;;;;;8.90;3.90;;;;;;;13.41;94.21;100317.34;110837;1209;98974;-67
2023/10/07 04:23:25;;;;;;;5.90;3.10;;;;;;;13.42;94.52;100325.73;110633;1209;139190;-66
2023/10/07 04:25:55;;;;;;;9.60;3.50;;;;;;;13.43;94.53;100322.08;110799;1209;99324;-66
2023/10/07 04:28:21;;;;;;;9.30;3.60;;;;;;;13.45;95.17;100319.75;110921;1209;111395;-67
2023/10/07 04:30:53;;;;;;;9.50;3.70;;;;;;;13.47;95.43;100325.01;110782;1209;139748;-68
2023/10/07 04:33:25;;;;;;;13.90;3.70;;;;;;;13.50;95.56;100321.10;110696;1215;107798;-67
2023/10/07 04:35:57;;;;;;;9.10;3.20;;;;;;;13.51;95.80;100319.61;110633;1209;139219;-67
2023/10/07 04:43:47;;;;;;;11.10;3.70;;;;;;;13.51;96.19;100301.11;110791;1210;99989;-67
2023/10/07 04:46:23;;;;;;;8.00;3.60;;;;;;;13.50;96.29;100297.96;110747;1214;107717;-65
2023/10/07 04:48:56;;;;;;;12.90;3.80;;;;;;;13.50;96.45;100301.90;110683;1209;140207;-66
2023/10/07 04:51:46;;;;;;;10.70;4.10;;;;;;;13.53;97.28;100293.96;110804;1214;97735;-65
2023/10/07 04:54:13;;;;;;;8.00;3.30;;;;;;;13.55;97.30;100288.11;110675;1209;139642;-66
2023/10/07 04:56:39;;;;;;;7.50;3.40;;;;;;;13.56;97.37;100294.16;110799;1209;99019;-67
2023/10/07 04:59:09;;;;;;;7.20;3.00;;;;;;;13.57;97.38;100287.77;110806;1209;99020;-66
2023/10/07 05:01:35;;;;;;;9.20;3.10;;;;;;;13.58;97.38;100296.54;110645;1214;99064;-66
2023/10/07 05:04:09;;;;;;;15.10;4.30;;;;;;;13.60;97.45;100297.68;110832;1209;98968;-66
2023/10/07 05:06:37;;;;;;;8.60;3.10;;;;;;;13.62;97.33;100290.17;110678;1209;139924;-66
2023/10/07 05:09:10;;;;;;;10.00;3.70;;;;;;;13.65;97.59;100284.77;110780;1210;100893;-66
2023/10/07 05:11:37;;;;;;;7.90;3.30;;;;;;;13.69;97.44;100284.54;110487;1209;141347;-65
2023/10/07 05:14:03;;;;;;;10.40;3.30;;;;;;;13.73;97.64;100287.22;110691;1229;99040;-66
2023/10/07 05:16:28;;;;;;;8.90;3.70;;;;;;;13.75;97.59;100292.27;110742;1214;99053;-66
2023/10/07 05:18:54;;;;;;;6.00;3.00;;;;;;;13.78;97.58;100295.51;110762;1209;139118;-66
2023/10/07 05:21:21;;;;;;;8.70;3.80;;;;;;;13.81;97.66;100290.27;110659;1209;99149;-66
2023/10/07 05:23:47;;;;;;;9.00;3.00;;;;;;;13.84;97.60;100305.14;110629;1209;139779;-66
2023/10/07 05:26:17;;;;;;;8.60;3.50;;;;;;;13.89;97.58;100286.86;111070;1210;97881;-66
2023/10/07 05:28:44;;;;;;;7.70;3.30;;;;;;;13.93;97.47;100294.67;110888;1213;100237;-66
2023/10/07 05:31:11;;;;;;;9.20;3.50;;;;;;;13.97;97.35;100288.16;110645;1209;139665;-66
2023/10/07 05:33:37;;;;;;;12.10;3.50;;;;;;;14.01;97.31;100292.08;110937;1214;98965;-66
2023/10/07 05:36:11;;;;;;;9.50;3.40;;;;;;;14.08;97.46;100292.14;110704;1213;140403;-66
2023/10/07 05:38:42;;;;;;;8.30;3.30;;;;;;;14.14;97.30;100281.90;110900;1209;97823;-66
2023/10/07 05:41:12;;;;;;;10.20;2.90;;;;;;;14.18;97.07;100273.76;110826;1210;112785;-66
2023/10/07 05:43:39;;;;;;;7.20;2.50;;;;;;;14.22;97.08;100276.89;110862;1213;102293;-66
2023/10/07 05:46:05;;;;;;;10.50;3.00;;;;;;;14.29;97.09;100279.30;110752;1210;98984;-66
2023/10/07 05:48:30;;;;;;;8.00;3.20;;;;;;;14.35;96.80;100279.12;110621;1212;139391;-66
2023/10/07 05:50:57;;;;;;;6.90;3.00;;;;;;;14.39;96.66;100278.82;110798;1213;99161;-66
2023/10/07 05:53:23;;;;;;;10.40;3.10;;;;;;;14.46;96.42;100279.52;110596;1214;138784;-66
2023/10/07 05:55:49;;;;;;;6.80;2.90;;;;;;;14.56;96.39;100289.80;110726;1209;99551;-67
2023/10/07 05:58:14;;;;;;;8.50;3.40;;;;;;;14.73;96.14;100297.33;110788;1214;99601;-66
2023/10/07 06:00:40;;;;;;;8.50;3.20;;;;;;;14.88;95.80;100292.68;110517;1213;139759;-67
2023/10/07 06:03:07;;;;;;;10.00;3.70;;;;;;;15.00;95.37;100301.64;110676;1214;98958;-67
2023/10/07 06:05:33;;;;;;;12.10;3.40;;;;;;;15.09;94.71;100298.08;110612;1210;140649;-66
2023/10/07 06:07:59;;;;;;;9.80;2.70;;;;;;;15.19;94.06;100299.42;110862;1213;99091;-66
2023/10/07 06:10:25;;;;;;;8.80;3.10;;;;;;;15.25;93.75;100294.34;110816;1213;113259;-66
2023/10/07 06:12:53;;;;;;;8.30;3.40;;;;;;;15.30;93.41;100293.66;110689;1210;142441;-66
2023/10/07 06:15:20;;;;;;;5.20;2.90;;;;;;;15.36;92.96;100294.69;110782;1210;99021;-67
2023/10/07 06:17:45;;;;;;;7.30;3.20;;;;;;;15.42;92.62;100285.78;110697;1213;139672;-65
2023/10/07 06:20:26;;;;;;;11.50;3.60;;;;;;;15.47;91.96;100292.10;110796;1209;99007;-65
2023/10/07 06:22:56;;;;;;;9.90;3.10;;;;;;;15.55;91.37;100285.43;110780;1214;99051;-65
2023/10/07 06:25:30;;;;;;;9.40;3.40;;;;;;;15.59;91.20;100288.73;110637;1213;140006;-65
2023/10/07 06:27:58;;;;;;;8.50;4.00;;;;;;;15.63;90.42;100294.59;110708;1214;98945;-65
2023/10/07 06:30:25;;;;;;;7.20;3.40;;;;;;;15.69;90.73;100294.69;112717;1209;138989;-65
2023/10/07 06:32:56;;;;;;;7.80;3.20;;;;;;;15.70;90.36;100311.38;112811;1209;96850;-65
2023/10/07 06:35:25;;;;;;;9.30;3.20;;;;;;;15.73;89.89;100305.39;112674;1210;138918;-65
2023/10/07 06:37:57;;;;;;;12.80;3.30;;;;;;;15.76;89.86;100312.77;111746;1210;107409;-65
2023/10/07 06:40:29;;;;;;;8.00;2.80;;;;;;;15.78;89.70;100307.02;111852;1212;98969;-66
2023/10/07 06:43:01;;;;;;;14.50;3.60;;;;;;;15.83;89.38;100318.58;110675;1211;139458;-68
2023/10/07 06:45:46;;;;;;;15.90;4.80;;;;;;;15.88;89.34;100316.95;110692;1213;112984;-67
2023/10/07 06:48:12;;;;;;;7.10;3.00;;;;;;;15.92;89.01;100315.20;110489;1214;139600;-67
2023/10/07 06:50:41;;;;;;;7.40;3.00;;;;;;;15.95;88.79;100318.42;110638;1214;98971;-67
2023/10/07 06:53:13;;;;;;;5.30;3.10;;;;;;;16.00;88.39;100315.77;110820;1210;99045;-66
2023/10/07 06:55:44;;;;;;;7.10;2.70;;;;;;;16.04;88.37;100322.14;110729;1211;99416;-67
2023/10/07 06:58:09;;;;;;;8.10;3.40;;;;;;;16.09;88.07;100314.38;110730;1214;113332;-68
2023/10/07 07:00:47;;;;;;;11.30;2.90;;;;;;;16.14;87.91;100317.25;110719;1209;139953;-69
2023/10/07 07:03:19;;;;;;;15.50;5.10;;;;;;;16.17;87.60;100312.34;110744;1209;100315;-69
2023/10/07 07:05:51;;;;;;;8.80;3.60;;;;;;;16.19;87.54;100328.59;110526;1210;140468;-69
2023/10/07 07:08:22;;;;;;;9.80;3.00;;;;;;;16.21;87.51;100326.65;110692;1215;98994;-69
2023/10/07 07:10:50;;;;;;;7.50;2.60;;;;;;;16.23;87.17;100331.02;110781;1209;112964;-69
2023/10/07 07:13:22;;;;;;;10.30;3.70;;;;;;;16.23;86.67;100340.19;110673;1214;139603;-69
2023/10/07 07:15:58;;;;;;;5.90;2.90;;;;;;;16.26;86.49;100327.42;110844;1214;107013;-70
2023/10/07 07:18:26;;;;;;;9.90;3.30;;;;;;;16.26;86.64;100337.12;110625;1214;139814;-72
2023/10/07 07:21:13;;;;;;;8.40;2.90;;;;;;;16.27;86.73;100348.58;110759;1211;100606;-69
2023/10/07 07:23:42;;;;;;;8.50;3.00;;;;;;;16.29;86.37;100363.64;110677;1210;139668;-70
2023/10/07 07:26:12;;;;;;;5.50;3.30;;;;;;;16.30;86.28;100354.52;110779;1229;99292;-70
2023/10/07 07:28:43;;;;;;;11.10;3.60;;;;;;;16.31;86.16;100370.33;110866;1209;107995;-70
2023/10/07 07:31:18;;;;;;;5.60;2.90;;;;;;;16.32;86.08;100352.06;110700;1209;141280;-70
2023/10/07 07:33:48;;;;;;;7.90;3.00;;;;;;;16.31;85.88;100355.33;110789;1214;97779;-69
2023/10/07 07:36:37;;;;;;;7.80;3.60;;;;;;;16.32;85.45;100380.91;110626;1214;139140;-69
2023/10/07 07:39:08;;;;;;;5.70;3.00;;;;;;;16.33;85.26;100361.91;110731;1213;99929;-69
2023/10/07 07:41:34;;;;;;;12.00;4.30;;;;;;;16.32;85.28;100369.84;110716;1223;138862;-69
2023/10/07 07:44:00;;;;;;;8.40;2.70;;;;;;;16.34;85.48;100364.16;110702;1209;99046;-70
2023/10/07 07:46:29;;;;;;;7.00;3.20;;;;;;;16.35;85.51;100372.91;110782;1210;99130;-71
2023/10/07 07:48:56;;;;;;;8.30;3.30;;;;;;;16.37;85.20;100368.44;110634;1214;138836;-70
2023/10/07 07:51:24;;;;;;;10.30;3.40;;;;;;;16.39;85.20;100375.16;110725;1209;99053;-70
2023/10/07 07:53:51;;;;;;;7.30;3.40;;;;;;;16.42;85.00;100365.91;110593;1214;139441;-70
2023/10/07 07:56:18;;;;;;;8.80;3.40;;;;;;;16.46;85.01;100372.80;110631;1213;100923;-67
2023/10/07 07:58:47;;;;;;;7.00;3.20;;;;;;;16.49;84.79;100375.99;110810;1209;98958;-67
2023/10/07 08:01:16;;;;;;;13.10;4.10;;;;;;;16.50;84.83;100369.78;110639;1209;140278;-62
2023/10/07 08:03:42;;;;;;;6.20;3.30;;;;;;;16.52;84.52;100371.48;110780;1209;100386;-62
2023/10/07 08:06:12;;;;;;;9.70;3.70;;;;;;;16.51;84.45;100383.09;110600;1214;139671;-62
2023/10/07 08:08:37;;;;;;;9.40;3.80;;;;;;;16.48;84.49;100373.18;110661;1209;98970;-62
2023/10/07 08:11:05;;;;;;;6.50;3.00;;;;;;;16.44;84.63;100386.86;110688;1208;99046;-61
2023/10/07 08:13:31;;;;;;;11.00;3.40;;;;;;;16.38;84.42;100410.20;110703;1209;140180;-61
2023/10/07 08:16:04;;;;;;;11.40;3.10;;;;;;;16.28;84.51;100406.75;110819;1209;98882;-61
2023/10/07 08:18:29;;;;;;;10.30;2.80;;;;;;;16.21;84.82;100407.63;110586;1209;138984;-61
2023/10/07 08:21:06;;;;;;;8.60;3.20;;;;;;;16.14;85.06;100410.85;110643;1212;99049;-61
2023/10/07 08:23:36;;;;;;;7.30;3.50;;;;;;;16.07;85.51;100418.34;110671;1215;139125;-61
2023/10/07 08:26:10;;;;;;;9.40;2.70;;;;;;;16.00;85.70;100417.91;110812;1212;100507;-61
2023/10/07 08:31:21;;;;;;;11.40;3.40;;;;;;;15.87;86.22;100420.96;110729;1209;140127;-61
2023/10/07 08:33:53;;;;;;;8.10;3.20;;;;;;;15.84;86.56;100427.16;110855;1215;99012;-61
2023/10/07 08:36:29;;;;;;;6.90;3.50;;;;;;;15.80;86.81;100425.46;110777;1209;139260;-61
2023/10/07 08:38:58;;;;;;;6.20;3.10;;;;;;;15.71;87.38;100433.59;110794;1214;99150;-60
2023/10/07 08:41:26;;;;;;;9.10;3.40;;;;;;;15.63;87.71;100434.03;110711;1209;140894;-61
2023/10/07 08:44:04;;;;;;;8.90;3.90;;;;;;;15.58;87.98;100439.96;111033;1210;99043;-61
2023/10/07 08:46:32;;;;;;;9.30;3.30;;;;;;;15.52;88.38;100437.21;110872;1213;100132;-61
2023/10/07 08:49:05;;;;;;;9.70;3.60;;;;;;;15.47;88.87;100436.55;110693;1209;139471;-61
2023/10/07 08:51:41;;;;;;;11.80;4.30;;;;;;;15.38;89.40;100437.81;110822;1212;100373;-61
2023/10/07 08:54:11;;;;;;;10.20;4.10;;;;;;;15.28;90.01;100453.82;110659;1213;139035;-61
2023/10/07 08:56:38;;;;;;;11.00;3.80;;;;;;;15.16;90.59;100448.61;110953;1209;99012;-61
2023/10/07 08:59:12;;;;;;;9.20;3.80;;;;;;;15.05;90.92;100450.44;110952;1213;99066;-61
2023/10/07 09:01:42;;;;;;;7.60;4.80;;;;;;;14.95;91.49;100452.17;110708;1225;139209;-61
2023/10/07 09:04:07;;;;;;;11.60;4.90;;;;;;;14.89;91.60;100459.80;110862;1209;99410;-61
2023/10/07 09:06:37;;;;;;;14.30;5.40;;;;;;;14.84;92.01;100464.55;110688;1209;140188;-61
2023/10/07 09:09:09;;;;;;;9.40;4.40;;;;;;;14.77;92.25;100461.80;110803;1214;99015;-61
2023/10/07 09:11:36;;;;;;;9.40;4.70;;;;;;;14.71;92.57;100472.29;110696;1210;140593;-61
2023/10/07 09:14:06;;;;;;;8.60;4.40;;;;;;;14.66;93.00;100472.58;110774;1209;98914;-60
2023/10/07 09:16:32;;;;;;;12.50;5.10;;;;;;;14.61;93.52;100478.09;110888;1212;100573;-60
2023/10/07 09:18:59;;;;;;;15.80;5.70;;;;;;;14.57;93.52;100481.77;110853;1209;141310;-60
2023/10/07 09:21:30;;;;;;;10.40;5.20;;;;;;;14.53;93.73;100478.95;110811;1209;98965;-60
2023/10/07 09:24:03;;;;;;;8.40;4.40;;;;;;;14.50;93.99;100482.55;110698;1213;139153;-60
2023/10/07 09:26:36;;;;;;;10.70;4.80;;;;;;;14.47;94.53;100483.14;110781;1213;113264;-60
2023/10/07 09:29:15;;;;;;;7.90;4.70;;;;;;;14.42;94.88;100475.86;110748;1210;100154;-60
2023/10/07 09:31:56;;;;;;;11.60;5.70;;;;;;;14.38;95.39;100469.09;110613;1213;111509;-60
2023/10/07 09:34:31;;;;;;;10.30;5.40;;;;;;;14.36;95.43;100463.26;110765;1208;99698;-61
2023/10/07 09:36:58;;;;;;;10.00;5.20;;;;;;;14.28;95.63;100461.59;110609;1214;140827;-59
2023/10/07 09:42:26;;;;;;;10.40;5.90;;;;;;;14.08;96.51;100459.09;110607;1208;139472;-60
2023/10/07 09:44:55;;;;;;;9.70;5.60;;;;;;;14.06;96.98;100462.45;110809;1214;108001;-59
2023/10/07 09:47:22;;;;;;;11.70;5.60;;;;;;;14.03;97.32;100466.02;110562;1212;139540;-60
2023/10/07 09:49:48;;;;;;;8.20;4.40;;;;;;;14.02;97.69;100468.23;110752;1213;99078;-60
2023/10/07 09:52:17;;;;;;;10.10;6.00;;;;;;;14.01;97.99;100470.10;110780;1209;99462;-60
2023/10/07 09:55:28;;;;;;;13.60;5.60;;;;;;;14.01;98.79;100465.46;110704;1214;139389;-61
2023/10/07 09:58:17;;;;;;;9.50;5.20;;;;;;;13.98;98.98;100460.94;110662;1209;108176;-60
2023/10/07 10:01:02;;;;;;;11.70;5.40;;;;;;;13.98;99.49;100467.40;110652;1209;140034;-64
2023/10/07 10:03:39;;;;;;;12.10;5.50;;;;;;;13.98;99.91;100465.40;110753;1214;98946;-64
2023/10/07 10:06:33;;;;;;;10.90;6.10;;;;;;;13.98;100.00;100466.48;110696;1214;139670;-64
2023/10/07 10:09:08;;;;;;;12.50;5.90;;;;;;;14.00;100.00;100471.06;110755;1209;99899;-67
2023/10/07 10:16:47;;;;;;;11.60;6.50;;;;;;;14.02;100.00;100470.39;110814;1214;98975;-64
2023/10/07 10:19:44;;;;;;;10.30;6.50;;;;;;;14.03;100.00;100465.88;110591;1214;139157;-64
2023/10/07 10:22:13;;;;;;;10.10;6.60;;;;;;;14.06;100.00;100464.04;110761;1213;100054;-65
2023/10/07 10:24:43;;;;;;;10.10;6.60;;;;;;;14.07;100.00;100462.54;110730;1214;139219;-64
2023/10/07 10:27:13;;;;;;;8.70;5.20;;;;;;;14.09;100.00;100464.44;110854;1223;98965;-64
2023/10/07 10:29:52;;;;;;;10.10;6.00;;;;;;;14.07;100.00;100456.27;110693;1214;140639;-64
2023/10/07 10:32:28;;;;;;;12.80;7.40;;;;;;;14.06;100.00;100471.97;110764;1209;112508;-64
2023/10/07 10:35:03;;;;;;;8.00;5.00;;;;;;;14.06;100.00;100475.41;110842;1214;99146;-64
2023/10/07 10:37:33;;;;;;;3.00;2.40;;;;;;;14.05;100.00;100480.11;110619;1209;138993;-64
2023/10/07 10:40:19;;;;;;;3.30;1.70;;;;;;;13.96;100.00;100471.98;110754;1210;98978;-64
2023/10/07 10:42:49;;;;;;;1.10;0.90;;;;;;;13.88;100.00;100476.41;110712;1214;139585;-64
2023/10/07 10:45:24;;;;;;;2.50;0.90;;;;;;;13.82;100.00;100483.46;110854;1214;112978;-64
2023/10/07 10:47:52;;;;;;;4.90;0.90;;;;;;;13.70;100.00;100491.90;110709;1209;140470;-65
2023/10/07 10:50:23;;;;;;;6.30;1.60;;;;;;;13.55;100.00;100489.35;110792;1209;106389;-65
2023/10/07 10:52:54;;;;;;;;;;;;;;;13.46;100.00;100493.48;110783;1209;99120;-65
2023/10/07 10:55:19;;;;;;;7.70;1.50;;;;;;;13.37;100.00;100503.86;110738;1214;126846;-64
2023/10/07 10:57:45;;;;;;;5.90;1.40;;;;;;;13.29;100.00;100500.54;110776;1213;98968;-64
2023/10/07 11:00:24;;;;;;;6.50;1.90;;;;;;;13.25;100.00;100511.34;110644;1214;139481;-65
2023/10/07 11:02:51;;;;;;;7.10;1.70;;;;;;;13.15;100.00;100510.84;110824;1209;100422;-64
2023/10/07 11:05:18;;;;;;;6.70;1.80;;;;;;;13.08;100.00;100506.89;110590;1209;140250;-63
2023/10/07 11:07:46;;;;;;;8.10;2.00;;;;;;;13.04;100.00;100501.39;110946;1214;99056;-64
2023/10/07 11:10:17;;;;;;;14.60;2.20;;;;;;;13.00;100.00;100496.42;110718;1214;99907;-64
2023/10/07 11:12:45;;;;;;;7.60;2.00;;;;;;;12.99;100.00;100500.64;110692;1214;139684;-65
2023/10/07 11:15:14;;;;;;;10.10;1.90;;;;;;;12.97;100.00;100502.34;110877;1209;99057;-65
2023/10/07 11:17:56;;;;;;;8.80;2.60;;;;;;;12.96;100.00;100502.23;110678;1214;139915;-65
2023/10/07 11:20:32;;;;;;;13.10;2.10;;;;;;;12.95;100.00;100506.59;110714;1214;112246;-65
2023/10/07 11:22:58;;;;;;;11.00;2.00;;;;;;;12.93;100.00;100507.08;110744;1208;100011;-65
2023/10/07 11:25:26;;;;;;;8.60;2.00;;;;;;;12.93;100.00;100498.98;110700;1209;139956;-65
2023/10/07 11:27:54;;;;;;;11.30;2.30;;;;;;;12.94;100.00;100503.40;110769;1209;99044;-65
2023/10/07 11:30:21;;;;;;;11.30;1.80;;;;;;;12.92;100.00;100510.67;110884;1213;139730;-65
2023/10/07 11:32:47;;;;;;;8.50;2.20;;;;;;;12.92;100.00;100501.73;110817;1209;100428;-66
2023/10/07 11:35:19;;;;;;;9.90;2.70;;;;;;;12.93;100.00;100501.67;110829;1209;99033;-65
2023/10/07 11:37:59;;;;;;;11.20;2.60;;;;;;;12.92;100.00;100495.63;110795;1214;107859;-65
2023/10/07 11:40:25;;;;;;;10.60;1.90;;;;;;;12.93;100.00;100498.63;110789;1210;98999;-64
2023/10/07 11:42:52;;;;;;;7.70;2.30;;;;;;;12.94;100.00;100493.52;110693;1209;139792;-65
2023/10/07 11:45:22;;;;;;;10.60;2.00;;;;;;;12.96;100.00;100496.65;110747;1215;98916;-65
2023/10/07 11:47:48;;;;;;;6.50;2.10;;;;;;;12.96;100.00;100494.54;110782;1208;141258;-64
2023/10/07 11:50:16;;;;;;;5.90;1.90;;;;;;;12.98;100.00;100499.77;110884;1214;99046;-63
2023/10/07 11:52:42;;;;;;;9.00;1.90;;;;;;;12.97;100.00;100492.52;110623;1209;99051;-64
2023/10/07 11:55:09;;;;;;;12.10;2.90;;;;;;;12.98;100.00;100493.34;110617;1210;139069;-65